Terminal Aerodrome Forecast
Issued by NWS Bismarck, ND

Home | Current Version | Previous Version | Text Only | Print | Product List | Glossary On
Versions: 1 2 3 4 5 6 7 8 9 10 11 12 13 14 15 16 17 18
200
FTUS43 KBIS 222336
TAFBIS
TAF
KBIS 222336Z 2300/2324 34014KT P6SM BKN015 OVC025
     FM230500 35006KT P6SM VCSH BKN015 OVC035
     FM231000 35005KT P6SM BKN010 OVC020
     FM231800 01007KT P6SM BKN035=

USA.gov is the U.S. government's official web portal to all federal, state and local government web resources and services.